メインページ
METAR-TAF:

METAR-TAF

空港 :

ニューヨーク / ラガーディア, ニューヨーク, アメリカ合衆国

ラガーディア空港

緯度: 40-46-45N, 経度: 073-52-48W, 海抜: 6m

現時点の気象観測

当レポートは29分前の22:51(UTC)に作成
南東の風 5kt
気温 21°C
湿度 60%
気圧 1012 hPa
視程: 16.1km
高度4700ftの曇り

METAR: KLGA 272251Z 14005KT 10SM OVC047 21/13 A2987 RMK AO2 SLP115 T02060133

時間: 19:20 (23:20 UTC)

予報

当レポートは3時間45分前の19:35(UTC)に作成
予報は27日の 20時(UTC)から 28日の 18時(UTC)まで有効
北西の風 5kt
視程: 10km
高度5000ftの千切れ雲あり
27日の 2200時(UTC)から
南/南東の風 8kt
視程: 10km
高度5000ftの千切れ雲あり
28日の 0100時(UTC)から
南東の風 4kt
視程: 10km
高度4000ftの千切れ雲あり
28日の 0900時(UTC)から
の風 5kt
視程: 10km
高度2000ftの千切れ雲あり
28日の 1400時(UTC)から
東/南東の風 8kt
視程: 10km
高度2500ftの雲は散在している
高度3500ftの千切れ雲あり

TAF: KLGA 271935Z 2720/2818 31005KT P6SM BKN050 FM272200 16008KT P6SM BKN050 FM280100 13004KT P6SM BKN040 FM280900 10005KT P6SM BKN020 FM281400 12008KT P6SM SCT025 BKN035

4,000以上の空港の気象観測と天気予報(METAR報とTAF報)

利用可能な観測所は地図上に黄色い丸と赤い丸で示す。

丸の上にカーソルを重ねると観測所名を参照できる。

次にクリックすると気象観測と天気予報を参照できる。

マップの切り替え:黒色「×」印の緑ボタンをクリックして拡大、「-」印の緑ボタンをクリックして縮小、緑色の三角印をクリックして隣りの地図に切り替え


METAR-TAF: